Fritztown, Pennsylvania
Current Conditions -  °F | °C
As of 11:02 AM on Saturday 20 Dec 2014 (Local Time) from KRDG Reporting Station
Overcast Overcast  
Wind Chill: 27°   Ceiling: 2900
Heat Index: 33°   Visibility: 10mi
Dew Point: 20°   Wind: 7mph
Humidity: 59%   Direction: 360°N
Pressure: 30.28"   Gusts: NA
Location:  40.3199°N, 76.0339°W
Report Text: KRDG 201602Z AUTO 36006KT 10SM OVC029 01/M07 A3028 RMK AO2 T00061067
Loading
Personal Weather Stations






























Interactive Weather Map New forecast layout! Learn more

10-Day Weather Forecast

Advertisements
Track Severe Weather on mobile